EWG9600 EDDL-LPMA
Flight info
| Callsign | EWG9600 |
|---|---|
| Flight time | N/A |
| Altitude | 34000 |
| Route | MODRU7Z MODRU Z717 MAS UM617 CIV/N0442F350 N872 MEDIL DCT KOVIN DCT NIDUV DCT KIHVI UN872 ERIGA UN741 AZFIC DCT GATMO DCT LOTEE DCT AGADO DCT UBANI DCT TUNAV/N0442F370 DCT TELMU DCT PECKY DCT LIDRO |
| Aircraft | A320/M-SDE3FGHIRWY/LB1 |
Departure
| Time | N/A |
|---|---|
| Airport | Düsseldorf Airport (EDDL) |
Arrival
| Time | 2026-05-06 16:47 |
|---|---|
| Airport | Cristiano Ronaldo International Airport (LPMA) |
| Time | Latitude | Longitude | Altitude | Speed | Heading |
|---|---|---|---|---|---|
| 2026-05-06 15:59 | 36.78372 | -13.58694 | 34047 ft | 439 kts | 218° |
| 2026-05-06 16:00 | 36.73305 | -13.62946 | 34054 ft | 439 kts | 218° |
| 2026-05-06 16:00 | 36.68262 | -13.67171 | 34047 ft | 440 kts | 219° |
| 2026-05-06 16:01 | 36.63176 | -13.71414 | 34052 ft | 440 kts | 218° |
| 2026-05-06 16:01 | 36.58082 | -13.75649 | 34056 ft | 441 kts | 218° |
| 2026-05-06 16:02 | 36.52985 | -13.79895 | 34064 ft | 441 kts | 218° |
| 2026-05-06 16:02 | 36.47921 | -13.84105 | 34066 ft | 441 kts | 218° |
| 2026-05-06 16:03 | 36.42809 | -13.88346 | 34044 ft | 442 kts | 218° |
| 2026-05-06 16:03 | 36.37671 | -13.92605 | 34053 ft | 446 kts | 219° |
| 2026-05-06 16:04 | 36.32502 | -13.96881 | 34063 ft | 447 kts | 219° |
| 2026-05-06 16:04 | 36.27324 | -14.01156 | 34068 ft | 447 kts | 219° |
| 2026-05-06 16:05 | 36.22173 | -14.05400 | 34072 ft | 447 kts | 219° |
| 2026-05-06 16:05 | 36.16989 | -14.09667 | 34074 ft | 448 kts | 218° |
| 2026-05-06 16:06 | 36.11802 | -14.13922 | 34061 ft | 448 kts | 219° |
| 2026-05-06 16:06 | 36.06634 | -14.18154 | 34065 ft | 448 kts | 219° |
| 2026-05-06 16:07 | 36.01433 | -14.22402 | 34044 ft | 449 kts | 219° |
| 2026-05-06 16:07 | 35.96228 | -14.26666 | 34057 ft | 449 kts | 219° |
| 2026-05-06 16:08 | 35.91016 | -14.30925 | 34065 ft | 450 kts | 219° |
| 2026-05-06 16:08 | 35.85802 | -14.35177 | 34063 ft | 450 kts | 219° |
| 2026-05-06 16:09 | 35.80613 | -14.39400 | 34070 ft | 450 kts | 219° |
| 2026-05-06 16:09 | 35.75393 | -14.43639 | 34086 ft | 450 kts | 219° |
| 2026-05-06 16:10 | 35.70168 | -14.47878 | 34097 ft | 450 kts | 219° |
| 2026-05-06 16:10 | 35.64945 | -14.52108 | 34096 ft | 450 kts | 219° |
| 2026-05-06 16:11 | 35.59654 | -14.56230 | 34082 ft | 451 kts | 217° |
| 2026-05-06 16:11 | 35.54288 | -14.60145 | 34062 ft | 452 kts | 216° |
| 2026-05-06 16:12 | 35.48867 | -14.64058 | 34070 ft | 452 kts | 216° |
| 2026-05-06 16:12 | 35.43464 | -14.68018 | 34080 ft | 452 kts | 216° |
| 2026-05-06 16:13 | 35.38082 | -14.71991 | 34087 ft | 452 kts | 216° |
| 2026-05-06 16:13 | 35.32692 | -14.75970 | 34071 ft | 452 kts | 216° |
| 2026-05-06 16:14 | 35.27339 | -14.79898 | 34086 ft | 452 kts | 216° |
| 2026-05-06 16:14 | 35.21945 | -14.83838 | 34092 ft | 451 kts | 216° |
| 2026-05-06 16:15 | 35.16560 | -14.87775 | 34099 ft | 451 kts | 216° |
| 2026-05-06 16:15 | 35.11176 | -14.91710 | 34100 ft | 451 kts | 216° |
| 2026-05-06 16:16 | 35.05820 | -14.95609 | 34061 ft | 451 kts | 216° |
| 2026-05-06 16:16 | 35.00418 | -14.99538 | 34069 ft | 453 kts | 216° |
| 2026-05-06 16:17 | 34.95006 | -15.03474 | 34073 ft | 454 kts | 216° |
| 2026-05-06 16:17 | 34.89579 | -15.07417 | 34073 ft | 454 kts | 216° |
| 2026-05-06 16:18 | 34.84143 | -15.11349 | 34100 ft | 457 kts | 216° |
| 2026-05-06 16:18 | 34.78711 | -15.15276 | 34095 ft | 457 kts | 216° |
| 2026-05-06 16:19 | 34.73257 | -15.19217 | 34110 ft | 456 kts | 216° |
| 2026-05-06 16:19 | 34.67807 | -15.23145 | 34114 ft | 455 kts | 216° |
| 2026-05-06 16:20 | 34.62368 | -15.27057 | 34113 ft | 454 kts | 216° |
| 2026-05-06 16:20 | 34.56970 | -15.30938 | 34110 ft | 454 kts | 216° |
| 2026-05-06 16:21 | 34.51541 | -15.34836 | 34092 ft | 453 kts | 216° |
| 2026-05-06 16:21 | 34.46120 | -15.38720 | 34095 ft | 453 kts | 216° |
| 2026-05-06 16:22 | 34.40691 | -15.42609 | 34098 ft | 453 kts | 216° |
| 2026-05-06 16:22 | 34.35270 | -15.46487 | 34095 ft | 453 kts | 216° |
| 2026-05-06 16:23 | 34.32599 | -15.48390 | 33924 ft | 449 kts | 216° |
| 2026-05-06 16:23 | 34.29923 | -15.50290 | 33645 ft | 444 kts | 216° |
| 2026-05-06 16:23 | 34.27272 | -15.52177 | 33379 ft | 441 kts | 216° |
| 2026-05-06 16:23 | 34.24640 | -15.54050 | 33098 ft | 439 kts | 216° |
| 2026-05-06 16:24 | 34.22005 | -15.55927 | 32832 ft | 437 kts | 216° |
| 2026-05-06 16:24 | 34.19392 | -15.57791 | 32568 ft | 436 kts | 216° |
| 2026-05-06 16:24 | 34.16784 | -15.59651 | 32311 ft | 435 kts | 216° |
| 2026-05-06 16:24 | 34.14181 | -15.61507 | 32055 ft | 434 kts | 216° |
| 2026-05-06 16:25 | 34.11580 | -15.63354 | 31795 ft | 433 kts | 216° |
| 2026-05-06 16:25 | 34.09018 | -15.65169 | 31516 ft | 434 kts | 217° |
| 2026-05-06 16:25 | 34.06410 | -15.67016 | 31267 ft | 435 kts | 217° |
| 2026-05-06 16:25 | 34.03797 | -15.68868 | 31013 ft | 435 kts | 217° |
| 2026-05-06 16:26 | 34.01198 | -15.70706 | 30637 ft | 432 kts | 217° |
| 2026-05-06 16:26 | 33.98606 | -15.72536 | 30125 ft | 431 kts | 217° |
| 2026-05-06 16:26 | 33.96027 | -15.74357 | 29584 ft | 428 kts | 217° |
| 2026-05-06 16:26 | 33.93479 | -15.76154 | 29127 ft | 424 kts | 217° |
| 2026-05-06 16:27 | 33.90945 | -15.77942 | 28660 ft | 420 kts | 217° |
| 2026-05-06 16:27 | 33.88433 | -15.79713 | 28202 ft | 416 kts | 217° |
| 2026-05-06 16:27 | 33.85986 | -15.81439 | 27740 ft | 413 kts | 216° |
| 2026-05-06 16:27 | 33.83514 | -15.83182 | 27289 ft | 410 kts | 216° |
| 2026-05-06 16:28 | 33.81066 | -15.84908 | 26826 ft | 407 kts | 216° |
| 2026-05-06 16:28 | 33.78635 | -15.86618 | 26349 ft | 404 kts | 216° |
| 2026-05-06 16:28 | 33.76215 | -15.88321 | 25893 ft | 402 kts | 216° |
| 2026-05-06 16:28 | 33.73804 | -15.90018 | 25415 ft | 400 kts | 216° |
| 2026-05-06 16:29 | 33.71410 | -15.91702 | 24933 ft | 399 kts | 216° |
| 2026-05-06 16:29 | 33.69045 | -15.93359 | 24433 ft | 398 kts | 216° |
| 2026-05-06 16:29 | 33.66660 | -15.95029 | 23952 ft | 397 kts | 216° |
| 2026-05-06 16:29 | 33.64312 | -15.96734 | 23441 ft | 393 kts | 217° |
| 2026-05-06 16:30 | 33.62036 | -15.98465 | 22951 ft | 381 kts | 218° |
| 2026-05-06 16:30 | 33.61283 | -15.99046 | 22809 ft | 376 kts | 218° |
| 2026-05-06 16:30 | 33.57690 | -16.01848 | 22078 ft | 368 kts | 218° |
| 2026-05-06 16:30 | 33.55548 | -16.03520 | 21647 ft | 367 kts | 218° |
| 2026-05-06 16:31 | 33.53413 | -16.05177 | 21214 ft | 365 kts | 217° |
| 2026-05-06 16:31 | 33.51282 | -16.06822 | 20779 ft | 364 kts | 217° |
| 2026-05-06 16:31 | 33.49874 | -16.07905 | 20505 ft | 363 kts | 217° |
| 2026-05-06 16:31 | 33.47067 | -16.10056 | 19945 ft | 361 kts | 217° |
| 2026-05-06 16:32 | 33.44955 | -16.11669 | 19534 ft | 359 kts | 217° |
| 2026-05-06 16:32 | 33.42848 | -16.13273 | 19100 ft | 358 kts | 216° |
| 2026-05-06 16:32 | 33.40748 | -16.14870 | 18683 ft | 357 kts | 216° |
| 2026-05-06 16:32 | 33.38666 | -16.16456 | 18250 ft | 350 kts | 216° |
| 2026-05-06 16:33 | 33.36647 | -16.17990 | 17847 ft | 338 kts | 216° |
| 2026-05-06 16:33 | 33.35338 | -16.18984 | 17590 ft | 335 kts | 216° |
| 2026-05-06 16:33 | 33.33377 | -16.20479 | 17203 ft | 334 kts | 216° |
| 2026-05-06 16:34 | 33.29477 | -16.23453 | 16449 ft | 331 kts | 216° |
| 2026-05-06 16:34 | 33.26911 | -16.25406 | 15949 ft | 330 kts | 216° |
| 2026-05-06 16:34 | 33.24981 | -16.26875 | 15581 ft | 329 kts | 216° |
| 2026-05-06 16:34 | 33.23678 | -16.27866 | 15338 ft | 328 kts | 216° |
| 2026-05-06 16:35 | 33.21778 | -16.29308 | 14977 ft | 328 kts | 216° |
| 2026-05-06 16:35 | 33.19847 | -16.30773 | 14613 ft | 330 kts | 215° |
| 2026-05-06 16:35 | 33.17265 | -16.32732 | 14109 ft | 328 kts | 215° |
| 2026-05-06 16:35 | 33.15992 | -16.33700 | 13848 ft | 326 kts | 216° |
| 2026-05-06 16:36 | 33.14084 | -16.35135 | 13455 ft | 325 kts | 216° |
| 2026-05-06 16:36 | 33.12157 | -16.36589 | 13052 ft | 329 kts | 216° |
| 2026-05-06 16:36 | 33.10252 | -16.38034 | 12697 ft | 321 kts | 216° |
| 2026-05-06 16:36 | 33.08361 | -16.39467 | 12312 ft | 320 kts | 215° |
| 2026-05-06 16:37 | 33.06508 | -16.40869 | 11948 ft | 311 kts | 215° |
| 2026-05-06 16:37 | 33.04712 | -16.42229 | 11587 ft | 309 kts | 215° |
| 2026-05-06 16:37 | 33.02903 | -16.43598 | 11207 ft | 308 kts | 215° |
| 2026-05-06 16:37 | 33.01095 | -16.44965 | 10829 ft | 308 kts | 215° |
| 2026-05-06 16:38 | 32.99290 | -16.46328 | 10451 ft | 306 kts | 215° |
| 2026-05-06 16:38 | 32.97498 | -16.47677 | 10132 ft | 303 kts | 215° |
| 2026-05-06 16:38 | 32.95714 | -16.49019 | 9761 ft | 302 kts | 215° |
| 2026-05-06 16:38 | 32.93952 | -16.50346 | 9529 ft | 298 kts | 215° |
| 2026-05-06 16:39 | 32.92276 | -16.51781 | 9087 ft | 295 kts | 225° |
| 2026-05-06 16:39 | 32.90752 | -16.53421 | 8455 ft | 296 kts | 225° |
| 2026-05-06 16:39 | 32.89225 | -16.55055 | 7745 ft | 294 kts | 225° |
| 2026-05-06 16:39 | 32.87727 | -16.56653 | 7042 ft | 293 kts | 225° |
| 2026-05-06 16:40 | 32.86211 | -16.58270 | 6300 ft | 292 kts | 225° |
| 2026-05-06 16:40 | 32.84702 | -16.59876 | 5526 ft | 290 kts | 224° |
| 2026-05-06 16:40 | 32.83200 | -16.61473 | 4762 ft | 289 kts | 224° |
| 2026-05-06 16:40 | 32.81628 | -16.62899 | 4250 ft | 280 kts | 212° |
| 2026-05-06 16:41 | 32.79890 | -16.63818 | 3943 ft | 265 kts | 200° |
| 2026-05-06 16:41 | 32.78180 | -16.64498 | 3823 ft | 259 kts | 200° |
| 2026-05-06 16:41 | 32.76482 | -16.65187 | 3618 ft | 256 kts | 200° |
| 2026-05-06 16:41 | 32.74824 | -16.65867 | 3399 ft | 257 kts | 201° |
| 2026-05-06 16:42 | 32.73139 | -16.66559 | 3169 ft | 256 kts | 200° |
| 2026-05-06 16:42 | 32.71456 | -16.67242 | 2972 ft | 255 kts | 200° |
| 2026-05-06 16:42 | 32.69778 | -16.67922 | 2795 ft | 256 kts | 200° |
| 2026-05-06 16:42 | 32.68077 | -16.68616 | 2575 ft | 261 kts | 196° |
| 2026-05-06 16:43 | 32.66367 | -16.69308 | 2366 ft | 258 kts | 199° |
| 2026-05-06 16:43 | 32.64695 | -16.69988 | 2243 ft | 251 kts | 200° |
| 2026-05-06 16:43 | 32.63133 | -16.70819 | 2137 ft | 243 kts | 214° |
| 2026-05-06 16:43 | 32.61923 | -16.72119 | 2021 ft | 234 kts | 233° |
| 2026-05-06 16:44 | 32.61147 | -16.73750 | 1935 ft | 220 kts | 253° |
| 2026-05-06 16:44 | 32.60850 | -16.75427 | 1959 ft | 194 kts | 269° |
| 2026-05-06 16:44 | 32.60927 | -16.76910 | 1986 ft | 168 kts | 283° |
| 2026-05-06 16:44 | 32.61257 | -16.78154 | 1900 ft | 153 kts | 298° |
| 2026-05-06 16:45 | 32.61866 | -16.79167 | 1679 ft | 150 kts | 317° |
| 2026-05-06 16:45 | 32.62693 | -16.79896 | 1453 ft | 147 kts | 334° |
| 2026-05-06 16:45 | 32.63634 | -16.80286 | 1293 ft | 140 kts | 352° |
| 2026-05-06 16:45 | 32.64584 | -16.80350 | 1131 ft | 138 kts | 1° |
| 2026-05-06 16:46 | 32.65533 | -16.80345 | 952 ft | 136 kts | 2° |
| 2026-05-06 16:46 | 32.66466 | -16.80323 | 808 ft | 135 kts | 4° |
| 2026-05-06 16:46 | 32.67358 | -16.80078 | 635 ft | 133 kts | 22° |
| 2026-05-06 16:46 | 32.68107 | -16.79438 | 476 ft | 133 kts | 43° |
| 2026-05-06 16:47 | 32.68752 | -16.78648 | 292 ft | 133 kts | 40° |
| 2026-05-06 16:47 | 32.69387 | -16.77910 | 179 ft | 118 kts | 40° |
| 2026-05-06 16:47 | 32.69814 | -16.77419 | 176 ft | 52 kts | 45° |
| 2026-05-06 16:47 | 32.69962 | -16.77224 | 176 ft | 9 kts | 98° |
| 2026-05-06 16:48 | 32.69933 | -16.77169 | 176 ft | 10 kts | 149° |
| 2026-05-06 16:48 | 32.69842 | -16.77178 | 176 ft | 14 kts | 211° |
| 2026-05-06 16:48 | 32.69778 | -16.77254 | 176 ft | 12 kts | 226° |
| 2026-05-06 16:48 | 32.69721 | -16.77325 | 176 ft | 11 kts | 227° |
| 2026-05-06 16:49 | 32.69668 | -16.77390 | 176 ft | 11 kts | 226° |
| 2026-05-06 16:49 | 32.69611 | -16.77460 | 176 ft | 16 kts | 226° |
| 2026-05-06 16:49 | 32.69534 | -16.77555 | 176 ft | 17 kts | 226° |
| 2026-05-06 16:49 | 32.69492 | -16.77595 | 176 ft | 7 kts | 186° |
| 2026-05-06 16:50 | 32.69456 | -16.77565 | 176 ft | 1 kts | 137° |
| 2026-05-06 16:50 | 32.69452 | -16.77560 | 176 ft | 3 kts | 136° |
| 2026-05-06 16:50 | 32.69442 | -16.77549 | 176 ft | 1 kts | 136° |
| 2026-05-06 16:50 | 32.69440 | -16.77547 | 176 ft | 0 kts | 136° |